WMSA

Sultan Abdul Aziz Shah International Airport

Subang, Malaysia
TAF WMSA 181100Z 1812/1912 14005KT 9999 FEW030 BECMG 1812/1813 VRB02KT TEMPO 1820/1900 22010G25KT 3000 TSRA FEW016CB SCT018
Issued Valid From Valid To
Jun-18 @ 11:00 UTC
(2 hours ago)
Jun-18 @ 12:00 UTC
(an hour ago)
Jun-19 @ 12:00 UTC
(in 23 hours)
Jun-18 @ 12:00 to Jun-19 @ 12:00
TAF WMSA 181100Z 1812/1912 14005KT 9999 FEW030
Wind Visibility Clouds
140° at 5 knots 10,000+ meters
  • Few at 3,000' AGL
Becoming Jun-18 @ 12:00 to Jun-19 @ 12:00
BECMG 1812/1813 VRB02KT
Wind Visibility Clouds
Variable at 2 knots 10,000+ meters
  • Few at 3,000' AGL
Temporary Jun-18 @ 20:00 to Jun-19 @ 00:00
TEMPO 1820/1900 22010G25KT 3000 TSRA FEW016CB SCT018
Wind Visibility Clouds Conditions
220° at 10 knots
 Gusting to 25 knots
2,993 meters
  • Few at 1,600' AGL
  • Scattered at 1,800' AGL
  • Thunderstorm
  • Rain
TAF WMSA 181100Z 1812/1912 14005KT 9999 FEW030 BECMG 1812/1813 VRB02KT TEMPO 1820/1900 22010G25KT 3000 TSRA FEW016CB SCT018
Issued Jun-18 @ 11:00 UTC
(2 hours ago)
Valid From Jun-18 @ 12:00 UTC
(an hour ago)
Valid To Jun-19 @ 12:00 UTC
(in 23 hours)
Jun-18 @ 12:00 - Jun-19 @ 12:00
Wind Visibility
140° at 5 knots 10,000+ meters
Clouds
  • Few at 3,000' AGL
Becoming Jun-18 @ 12:00 - Jun-19 @ 12:00
Wind Visibility
Variable at 2 knots 10,000+ meters
Clouds
  • Few at 3,000' AGL
Temporary Jun-18 @ 20:00 - Jun-19 @ 00:00
Wind Visibility
220° at 10 knots
 Gusting to 25 knots
2,993 meters
Clouds
  • Few at 1,600' AGL
  • Scattered at 1,800' AGL
Conditions
  • Thunderstorm
  • Rain